createdAt,value
2023-05-14T00:01:19.617Z,53.82
2023-05-14T00:03:46.145Z,53.95
2023-05-14T00:06:12.818Z,53.89
2023-05-14T00:08:39.340Z,53.89
2023-05-14T00:11:05.897Z,53.86
2023-05-14T00:13:32.471Z,53.92
2023-05-14T00:15:58.966Z,53.88
2023-05-14T00:18:25.626Z,54.07
2023-05-14T00:20:54.761Z,54.19
2023-05-14T00:23:22.583Z,54.44
2023-05-14T00:25:49.632Z,54.58
2023-05-14T00:28:16.796Z,54.59
2023-05-14T00:30:44.683Z,54.63
2023-05-14T00:33:11.382Z,54.73
2023-05-14T00:35:38.001Z,54.88
2023-05-14T00:38:05.011Z,55.00
2023-05-14T00:40:31.604Z,55.00
2023-05-14T00:42:58.133Z,55.16
2023-05-14T00:45:25.626Z,55.13
2023-05-14T00:47:53.474Z,54.99
2023-05-14T00:50:21.127Z,55.08
2023-05-14T00:52:47.979Z,55.14
2023-05-14T00:55:16.978Z,55.25
2023-05-14T00:57:44.262Z,55.31
2023-05-14T01:00:11.339Z,55.43
2023-05-14T01:02:38.103Z,55.46
2023-05-14T01:05:05.690Z,55.55
2023-05-14T01:07:55.263Z,55.43
2023-05-14T01:10:39.080Z,55.60
2023-05-14T01:13:21.848Z,55.71
2023-05-14T01:15:49.237Z,55.75
2023-05-14T01:18:18.288Z,55.67
2023-05-14T01:20:45.960Z,55.80
2023-05-14T01:23:12.457Z,55.84
2023-05-14T01:25:38.981Z,55.79
2023-05-14T01:28:15.393Z,55.92
2023-05-14T01:30:57.343Z,55.88
2023-05-14T01:33:27.644Z,55.84
2023-05-14T01:35:54.970Z,55.88
2023-05-14T01:38:23.338Z,55.93
2023-05-14T01:40:50.822Z,55.93
2023-05-14T01:43:18.750Z,55.93
2023-05-14T01:45:45.534Z,56.03
2023-05-14T01:48:12.565Z,56.09
2023-05-14T01:50:39.156Z,55.99
2023-05-14T01:53:05.789Z,55.98
2023-05-14T01:55:32.322Z,56.05
2023-05-14T01:57:59.007Z,56.10
2023-05-14T02:00:26.268Z,56.18
2023-05-14T02:02:53.163Z,56.22
2023-05-14T02:05:19.817Z,56.35
2023-05-14T02:07:46.414Z,56.30
2023-05-14T02:10:13.316Z,56.37
2023-05-14T02:12:39.925Z,56.38
2023-05-14T02:15:08.917Z,56.37
2023-05-14T02:17:39.190Z,56.41
2023-05-14T02:20:06.411Z,56.55
2023-05-14T02:22:33.061Z,56.44
2023-05-14T02:24:59.562Z,56.49
2023-05-14T02:27:26.135Z,56.62
2023-05-14T02:29:52.852Z,56.61
2023-05-14T02:32:19.497Z,56.71
2023-05-14T02:34:46.076Z,56.67
2023-05-14T02:37:12.649Z,56.83
2023-05-14T02:39:39.140Z,56.76
2023-05-14T02:42:06.988Z,56.79
2023-05-14T02:44:33.688Z,56.88
2023-05-14T02:47:00.252Z,56.79
2023-05-14T02:49:26.783Z,56.92
2023-05-14T02:51:54.350Z,56.92
2023-05-14T02:54:20.927Z,56.81
2023-05-14T02:56:47.574Z,56.73
2023-05-14T02:59:14.369Z,56.95
2023-05-14T03:01:41.425Z,57.24
2023-05-14T03:04:08.645Z,57.20
2023-05-14T03:06:35.264Z,57.22
2023-05-14T03:09:01.810Z,57.25
2023-05-14T03:11:28.421Z,57.34
2023-05-14T03:13:54.950Z,57.43
2023-05-14T03:16:21.497Z,57.40
2023-05-14T03:18:48.142Z,57.43
2023-05-14T03:21:14.803Z,57.53
2023-05-14T03:23:41.517Z,57.59
2023-05-14T03:26:13.955Z,57.61
2023-05-14T03:28:40.838Z,57.69
2023-05-14T03:31:07.466Z,57.83
2023-05-14T03:33:34.074Z,57.79
2023-05-14T03:36:00.630Z,57.89
2023-05-14T03:38:27.205Z,57.93
2023-05-14T03:40:53.712Z,57.93
2023-05-14T03:43:20.356Z,58.01
2023-05-14T03:45:52.257Z,58.11
2023-05-14T03:48:19.772Z,58.16
2023-05-14T03:50:46.908Z,58.20
2023-05-14T03:53:13.524Z,58.28
2023-05-14T03:55:40.138Z,58.24
2023-05-14T03:58:14.360Z,58.31
2023-05-14T04:00:44.109Z,58.29
2023-05-14T04:03:11.263Z,58.30
2023-05-14T04:05:37.900Z,58.30
2023-05-14T04:08:04.587Z,58.34
2023-05-14T04:10:32.022Z,58.34
2023-05-14T04:12:59.505Z,58.38
2023-05-14T04:15:31.026Z,58.33
2023-05-14T04:17:57.709Z,58.28
2023-05-14T04:20:24.475Z,58.21
2023-05-14T04:22:51.171Z,58.36
2023-05-14T04:25:18.508Z,58.40
2023-05-14T04:27:45.304Z,58.45
2023-05-14T04:30:12.486Z,58.52
2023-05-14T04:32:39.230Z,58.51
2023-05-14T04:35:06.642Z,58.52
2023-05-14T04:37:33.365Z,58.49
2023-05-14T04:40:00.910Z,58.50
2023-05-14T04:42:27.545Z,58.57
2023-05-14T04:44:54.033Z,58.50
2023-05-14T04:47:21.125Z,58.48
2023-05-14T04:49:47.841Z,58.44
2023-05-14T04:52:14.365Z,58.39
2023-05-14T04:54:41.060Z,58.34
2023-05-14T04:57:07.598Z,58.36
2023-05-14T04:59:34.185Z,58.33
2023-05-14T05:02:00.699Z,58.31
2023-05-14T05:04:27.794Z,58.30
2023-05-14T05:06:54.305Z,58.19
2023-05-14T05:09:21.285Z,58.25
2023-05-14T05:11:47.816Z,58.08
2023-05-14T05:14:14.367Z,58.05
2023-05-14T05:16:40.972Z,57.95
2023-05-14T05:19:07.588Z,57.99
2023-05-14T05:21:34.799Z,57.82
2023-05-14T05:24:01.275Z,57.67
2023-05-14T05:26:28.091Z,57.64
2023-05-14T05:28:54.656Z,57.72
2023-05-14T05:31:21.268Z,57.55
2023-05-14T05:33:48.100Z,57.43
2023-05-14T05:36:14.670Z,57.38
2023-05-14T05:38:41.357Z,57.26
2023-05-14T05:41:08.073Z,57.26
2023-05-14T05:43:34.713Z,57.00
2023-05-14T05:46:01.617Z,56.86
2023-05-14T05:48:28.321Z,56.78
2023-05-14T05:50:55.126Z,56.79
2023-05-14T05:53:21.766Z,56.49
2023-05-14T05:55:48.371Z,56.61
2023-05-14T05:58:17.155Z,56.49
2023-05-14T06:00:44.009Z,56.37
2023-05-14T06:03:11.303Z,56.17
2023-05-14T06:05:38.060Z,56.07
2023-05-14T06:08:05.101Z,55.87
2023-05-14T06:10:31.980Z,55.77
2023-05-14T06:12:58.531Z,55.46
2023-05-14T06:15:25.129Z,55.45
2023-05-14T06:17:51.886Z,55.50
2023-05-14T06:20:19.086Z,55.30
2023-05-14T06:22:45.718Z,55.18
2023-05-14T06:25:12.365Z,55.04
2023-05-14T06:27:38.950Z,54.71
2023-05-14T06:30:07.015Z,54.33
2023-05-14T06:32:33.603Z,54.35
2023-05-14T06:35:00.188Z,54.29
2023-05-14T06:37:26.792Z,53.85
2023-05-14T06:39:54.750Z,53.63
2023-05-14T06:42:23.031Z,53.36
2023-05-14T06:44:49.568Z,53.22
2023-05-14T06:47:16.205Z,52.79
2023-05-14T06:49:42.801Z,52.74
2023-05-14T06:52:09.336Z,52.70
2023-05-14T06:54:36.020Z,52.52
2023-05-14T06:57:02.618Z,52.08
2023-05-14T06:59:29.309Z,52.05
2023-05-14T07:01:55.938Z,51.53
2023-05-14T07:04:22.636Z,50.94
2023-05-14T07:06:49.365Z,50.22
2023-05-14T07:09:16.528Z,49.57
2023-05-14T07:11:43.475Z,48.98
2023-05-14T07:14:10.057Z,48.65
2023-05-14T07:16:37.109Z,48.05
2023-05-14T07:19:03.741Z,47.45
2023-05-14T07:21:30.355Z,47.01
2023-05-14T07:23:56.938Z,46.20
2023-05-14T07:26:24.579Z,45.51
2023-05-14T07:28:51.297Z,44.76
2023-05-14T07:31:17.934Z,44.95
2023-05-14T07:33:47.507Z,45.50
2023-05-14T07:36:14.085Z,45.31
2023-05-14T07:38:40.774Z,44.45
2023-05-14T07:41:07.891Z,43.70
2023-05-14T07:43:34.651Z,43.48
2023-05-14T07:46:01.220Z,43.65
2023-05-14T07:48:27.827Z,43.54
2023-05-14T07:50:54.617Z,41.64
2023-05-14T07:53:22.006Z,41.02
2023-05-14T07:55:49.285Z,41.52
2023-05-14T07:58:16.752Z,40.02
2023-05-14T08:00:43.538Z,40.28
2023-05-14T08:03:10.435Z,41.16
2023-05-14T08:05:39.621Z,41.04
2023-05-14T08:08:06.612Z,40.70
2023-05-14T08:10:33.217Z,40.30
2023-05-14T08:12:59.785Z,39.88
2023-05-14T08:15:27.831Z,38.65
2023-05-14T08:17:54.952Z,37.95
2023-05-14T08:20:22.218Z,37.08
2023-05-14T08:22:48.964Z,37.00
2023-05-14T08:25:15.665Z,36.92
2023-05-14T08:27:42.238Z,36.58
2023-05-14T08:30:09.209Z,35.55
2023-05-14T08:32:35.857Z,35.83
2023-05-14T08:35:02.502Z,35.92
2023-05-14T08:37:29.084Z,35.74
2023-05-14T08:39:56.244Z,35.33
2023-05-14T08:42:24.724Z,34.97
2023-05-14T08:45:00.908Z,34.49
2023-05-14T08:47:30.237Z,35.15
2023-05-14T08:50:08.156Z,35.08
2023-05-14T08:52:35.042Z,35.04
2023-05-14T08:55:05.592Z,33.82
2023-05-14T08:57:33.316Z,33.61
2023-05-14T09:00:00.423Z,33.77
2023-05-14T09:02:31.550Z,33.09
2023-05-14T09:05:00.101Z,33.42
2023-05-14T09:07:27.544Z,33.58
2023-05-14T09:09:54.988Z,33.14
2023-05-14T09:12:22.135Z,32.93
2023-05-14T09:14:49.788Z,33.47
2023-05-14T09:17:17.432Z,32.65
2023-05-14T09:19:47.352Z,32.38
2023-05-14T09:22:15.975Z,32.56
2023-05-14T09:24:43.178Z,33.05
2023-05-14T09:27:15.246Z,33.18
2023-05-14T09:29:41.851Z,33.16
2023-05-14T09:32:10.274Z,32.66
2023-05-14T09:34:39.699Z,31.94
2023-05-14T09:37:08.016Z,31.44
2023-05-14T09:39:36.502Z,31.93
2023-05-14T09:42:03.784Z,31.04
2023-05-14T09:44:30.726Z,31.13
2023-05-14T09:46:57.620Z,31.41
2023-05-14T09:49:24.215Z,30.21
2023-05-14T09:51:51.583Z,30.75
2023-05-14T09:54:18.252Z,30.53
2023-05-14T09:56:44.969Z,30.38
2023-05-14T09:59:11.662Z,30.64
2023-05-14T10:01:38.621Z,30.63
2023-05-14T10:04:08.188Z,30.94
2023-05-14T10:06:39.325Z,30.92
2023-05-14T10:09:12.372Z,31.30
2023-05-14T10:11:43.623Z,31.09
2023-05-14T10:14:20.714Z,30.25
2023-05-14T10:16:51.087Z,29.53
2023-05-14T10:19:20.805Z,29.77
2023-05-14T10:21:59.778Z,29.27
2023-05-14T10:24:27.482Z,29.13
2023-05-14T10:26:54.321Z,28.93
2023-05-14T10:29:31.484Z,29.53
2023-05-14T10:31:58.007Z,29.61
2023-05-14T10:34:34.571Z,29.77
2023-05-14T10:37:02.369Z,29.80
2023-05-14T10:39:49.634Z,29.83
2023-05-14T10:42:21.719Z,29.50
2023-05-14T10:45:01.531Z,28.99
2023-05-14T10:47:29.521Z,28.57
2023-05-14T10:50:03.788Z,29.22
2023-05-14T10:52:31.064Z,29.17
2023-05-14T10:55:03.691Z,29.24
2023-05-14T10:57:32.309Z,29.11
2023-05-14T11:00:03.174Z,29.41
2023-05-14T11:02:41.253Z,29.37
2023-05-14T11:05:11.034Z,29.01
2023-05-14T11:07:38.517Z,28.79
2023-05-14T11:10:10.239Z,28.59
2023-05-14T11:12:40.941Z,29.18
2023-05-14T11:15:13.296Z,28.68
2023-05-14T11:17:41.650Z,28.89
2023-05-14T11:20:09.610Z,29.10
2023-05-14T11:22:37.436Z,28.78
2023-05-14T11:25:04.861Z,28.10
2023-05-14T11:27:33.591Z,28.58
2023-05-14T11:30:01.051Z,28.41
2023-05-14T11:32:27.858Z,28.16
2023-05-14T11:34:54.587Z,28.34
2023-05-14T11:37:24.136Z,28.37
2023-05-14T11:39:52.852Z,28.65
2023-05-14T11:42:20.855Z,28.83
2023-05-14T11:44:49.080Z,28.68
2023-05-14T11:47:18.262Z,28.24
2023-05-14T11:49:45.885Z,28.16
2023-05-14T11:52:14.859Z,28.55
2023-05-14T11:54:43.039Z,28.39
2023-05-14T11:57:12.596Z,27.99
2023-05-14T11:59:39.888Z,27.79
2023-05-14T12:02:10.599Z,27.76
2023-05-14T12:04:37.391Z,28.13
2023-05-14T12:07:12.877Z,28.88
2023-05-14T12:09:44.207Z,28.73
2023-05-14T12:12:12.874Z,28.72
2023-05-14T12:14:45.410Z,27.93
2023-05-14T12:17:14.969Z,28.24
2023-05-14T12:19:42.546Z,28.60
2023-05-14T12:22:11.005Z,28.39
2023-05-14T12:24:39.179Z,28.26
2023-05-14T12:27:07.402Z,28.28
2023-05-14T12:29:41.334Z,28.53
2023-05-14T12:32:09.321Z,28.36
2023-05-14T12:34:37.888Z,28.48
2023-05-14T12:37:05.583Z,28.59
2023-05-14T12:39:35.660Z,28.31
2023-05-14T12:42:02.427Z,28.08
2023-05-14T12:44:29.114Z,27.97
2023-05-14T12:46:56.045Z,28.09
2023-05-14T12:49:22.750Z,28.30
2023-05-14T12:51:51.209Z,28.49
2023-05-14T12:54:24.352Z,28.34
2023-05-14T12:56:50.967Z,27.90
2023-05-14T12:59:17.612Z,27.43
2023-05-14T13:01:44.273Z,27.62
2023-05-14T13:04:14.416Z,27.85
2023-05-14T13:06:41.346Z,28.54
2023-05-14T13:09:08.753Z,28.68
2023-05-14T13:11:35.712Z,28.23
2023-05-14T13:14:02.568Z,27.97
2023-05-14T13:16:30.122Z,28.05
2023-05-14T13:18:56.812Z,28.17
2023-05-14T13:21:23.378Z,28.35
2023-05-14T13:23:49.923Z,28.28
2023-05-14T13:26:16.491Z,28.26
2023-05-14T13:28:43.328Z,27.95
2023-05-14T13:31:11.930Z,27.95
2023-05-14T13:33:40.883Z,28.04
2023-05-14T13:36:08.438Z,28.08
2023-05-14T13:38:35.418Z,27.88
2023-05-14T13:41:02.721Z,27.86
2023-05-14T13:43:33.921Z,27.78
2023-05-14T13:46:01.562Z,28.03
2023-05-14T13:48:28.481Z,28.08
2023-05-14T13:50:55.163Z,28.24
2023-05-14T13:53:23.117Z,28.07
2023-05-14T13:55:50.410Z,27.96
2023-05-14T13:58:17.227Z,28.16
2023-05-14T14:00:43.907Z,28.13
2023-05-14T14:03:10.715Z,28.23
2023-05-14T14:05:37.701Z,28.48
2023-05-14T14:08:17.769Z,28.70
2023-05-14T14:10:49.834Z,28.74
2023-05-14T14:13:16.447Z,28.63
2023-05-14T14:15:43.691Z,28.61
2023-05-14T14:18:10.469Z,28.62
2023-05-14T14:20:37.191Z,28.79
2023-05-14T14:23:03.927Z,28.83
2023-05-14T14:25:30.630Z,28.81
2023-05-14T14:27:57.354Z,28.82
2023-05-14T14:30:24.052Z,28.86
2023-05-14T14:32:51.190Z,28.87
2023-05-14T14:35:19.381Z,28.96
2023-05-14T14:37:49.347Z,29.05
2023-05-14T14:40:17.172Z,29.08
2023-05-14T14:42:44.378Z,29.18
2023-05-14T14:45:12.119Z,29.16
2023-05-14T14:47:38.976Z,29.11
2023-05-14T14:50:06.486Z,29.19
2023-05-14T14:52:33.207Z,29.22
2023-05-14T14:54:59.816Z,29.27
2023-05-14T14:57:26.879Z,29.27
2023-05-14T14:59:53.468Z,29.30
2023-05-14T15:02:20.264Z,29.51
2023-05-14T15:04:46.898Z,29.59
2023-05-14T15:07:15.937Z,29.53
2023-05-14T15:09:43.357Z,29.49
2023-05-14T15:12:11.185Z,29.52
2023-05-14T15:14:37.831Z,29.40
2023-05-14T15:17:04.619Z,29.27
2023-05-14T15:19:32.282Z,29.43
2023-05-14T15:21:58.861Z,29.41
2023-05-14T15:24:26.174Z,29.37
2023-05-14T15:26:53.661Z,29.52
2023-05-14T15:29:20.530Z,29.51
2023-05-14T15:31:47.271Z,29.50
2023-05-14T15:34:14.000Z,29.24
2023-05-14T15:36:40.812Z,29.40
2023-05-14T15:39:10.298Z,29.59
2023-05-14T15:41:38.124Z,29.56
2023-05-14T15:44:05.024Z,29.57
2023-05-14T15:46:32.193Z,29.67
2023-05-14T15:48:58.769Z,29.76
2023-05-14T15:51:25.477Z,29.76
2023-05-14T15:53:54.096Z,29.80
2023-05-14T15:56:23.794Z,29.94
2023-05-14T15:58:50.536Z,29.75
2023-05-14T16:01:19.371Z,29.80
2023-05-14T16:03:46.159Z,29.88
2023-05-14T16:06:13.048Z,29.92
2023-05-14T16:08:39.698Z,29.91
2023-05-14T16:11:07.585Z,29.97
2023-05-14T16:13:37.597Z,30.20
2023-05-14T16:16:04.398Z,30.07
2023-05-14T16:18:31.112Z,30.09
2023-05-14T16:20:57.815Z,30.21
2023-05-14T16:23:24.367Z,30.20
2023-05-14T16:25:51.079Z,30.39
2023-05-14T16:28:17.672Z,30.39
2023-05-14T16:30:47.259Z,30.49
2023-05-14T16:33:13.904Z,30.53
2023-05-14T16:35:40.504Z,30.52
2023-05-14T16:38:07.118Z,30.62
2023-05-14T16:40:33.677Z,30.55
2023-05-14T16:43:00.376Z,30.65
2023-05-14T16:45:27.198Z,30.76
2023-05-14T16:47:54.153Z,30.58
2023-05-14T16:50:20.967Z,30.72
2023-05-14T16:52:47.595Z,30.74
2023-05-14T16:55:14.296Z,30.75
2023-05-14T16:57:41.039Z,30.83
2023-05-14T17:00:09.882Z,31.05
2023-05-14T17:02:36.978Z,31.04
2023-05-14T17:05:04.164Z,31.04
2023-05-14T17:07:31.439Z,31.11
2023-05-14T17:09:58.610Z,30.89
2023-05-14T17:12:26.098Z,31.05
2023-05-14T17:14:53.071Z,31.03
2023-05-14T17:17:19.600Z,31.23
2023-05-14T17:19:46.261Z,31.17
2023-05-14T17:22:15.807Z,31.12
2023-05-14T17:24:42.397Z,31.16
2023-05-14T17:27:09.129Z,31.27
2023-05-14T17:29:35.721Z,31.33
2023-05-14T17:32:03.645Z,31.35
2023-05-14T17:34:30.495Z,31.16
2023-05-14T17:36:57.384Z,31.51
2023-05-14T17:39:24.019Z,31.57
2023-05-14T17:41:50.607Z,31.54
2023-05-14T17:44:17.192Z,31.79
2023-05-14T17:46:44.667Z,31.83
2023-05-14T17:49:11.991Z,31.79
2023-05-14T17:51:38.539Z,31.87
2023-05-14T17:54:05.200Z,31.97
2023-05-14T17:56:31.864Z,31.97
2023-05-14T17:58:58.537Z,32.07
2023-05-14T18:01:25.133Z,32.08
2023-05-14T18:03:52.269Z,32.41
2023-05-14T18:06:18.899Z,32.37
2023-05-14T18:08:45.479Z,32.47
2023-05-14T18:11:12.349Z,32.62
2023-05-14T18:13:38.949Z,32.47
2023-05-14T18:16:05.736Z,32.95
2023-05-14T18:18:32.378Z,33.04
2023-05-14T18:20:59.133Z,33.06
2023-05-14T18:23:25.742Z,33.14
2023-05-14T18:25:52.381Z,32.97
2023-05-14T18:28:21.339Z,33.25
2023-05-14T18:30:49.337Z,33.39
2023-05-14T18:33:16.202Z,33.54
2023-05-14T18:35:43.716Z,33.71
2023-05-14T18:38:11.855Z,33.84
2023-05-14T18:40:38.533Z,33.73
2023-05-14T18:43:05.225Z,33.67
2023-05-14T18:45:31.882Z,33.97
2023-05-14T18:47:58.558Z,34.08
2023-05-14T18:50:25.099Z,34.17
2023-05-14T18:52:51.653Z,34.44
2023-05-14T18:55:18.290Z,34.49
2023-05-14T18:57:44.934Z,34.61
2023-05-14T19:00:14.332Z,34.70
2023-05-14T19:02:41.405Z,34.79
2023-05-14T19:05:08.349Z,34.86
2023-05-14T19:07:35.063Z,34.91
2023-05-14T19:10:01.689Z,35.04
2023-05-14T19:12:29.489Z,35.18
2023-05-14T19:14:56.093Z,35.46
2023-05-14T19:17:22.778Z,35.41
2023-05-14T19:19:49.418Z,35.57
2023-05-14T19:22:18.585Z,35.77
2023-05-14T19:24:45.114Z,35.72
2023-05-14T19:27:16.039Z,35.80
2023-05-14T19:29:43.661Z,35.89
2023-05-14T19:32:10.542Z,36.22
2023-05-14T19:34:37.149Z,36.37
2023-05-14T19:37:04.662Z,36.56
2023-05-14T19:39:31.520Z,36.57
2023-05-14T19:41:59.398Z,36.81
2023-05-14T19:44:26.024Z,36.82
2023-05-14T19:46:52.720Z,37.04
2023-05-14T19:49:19.367Z,36.97
2023-05-14T19:51:46.007Z,36.97
2023-05-14T19:54:12.648Z,36.90
2023-05-14T19:56:39.248Z,37.20
2023-05-14T19:59:05.961Z,37.29
2023-05-14T20:01:34.334Z,37.27
2023-05-14T20:04:01.236Z,37.34
2023-05-14T20:06:28.058Z,37.60
2023-05-14T20:08:55.333Z,37.55
2023-05-14T20:11:21.936Z,37.52
2023-05-14T20:13:49.707Z,37.74
2023-05-14T20:16:16.884Z,38.00
2023-05-14T20:18:44.303Z,38.16
2023-05-14T20:21:11.044Z,38.37
2023-05-14T20:23:37.760Z,38.36
2023-05-14T20:26:04.618Z,38.63
2023-05-14T20:28:31.471Z,38.61
2023-05-14T20:31:02.928Z,38.71
2023-05-14T20:33:30.752Z,38.79
2023-05-14T20:35:57.490Z,38.83
2023-05-14T20:38:25.659Z,39.11
2023-05-14T20:40:52.210Z,39.26
2023-05-14T20:43:18.826Z,39.47
2023-05-14T20:45:45.482Z,39.51
2023-05-14T20:48:16.096Z,39.53
2023-05-14T20:50:43.311Z,39.67
2023-05-14T20:53:09.967Z,39.83
2023-05-14T20:55:36.695Z,39.91
2023-05-14T20:58:03.457Z,39.99
2023-05-14T21:00:30.276Z,40.21
2023-05-14T21:02:57.396Z,40.10
2023-05-14T21:05:24.884Z,40.22
2023-05-14T21:07:51.725Z,40.36
2023-05-14T21:10:18.581Z,40.31
2023-05-14T21:12:45.290Z,40.20
2023-05-14T21:15:11.989Z,40.28
2023-05-14T21:17:38.700Z,40.42
2023-05-14T21:20:06.343Z,40.54
2023-05-14T21:22:33.111Z,40.53
2023-05-14T21:24:59.728Z,40.66
2023-05-14T21:27:26.713Z,40.70
2023-05-14T21:29:53.432Z,40.55
2023-05-14T21:32:22.128Z,40.72
2023-05-14T21:34:49.240Z,40.75
2023-05-14T21:37:15.936Z,40.77
2023-05-14T21:39:42.446Z,40.88
2023-05-14T21:42:09.629Z,40.89
2023-05-14T21:44:36.303Z,40.84
2023-05-14T21:47:03.852Z,40.89
2023-05-14T21:49:30.605Z,41.10
2023-05-14T21:51:57.354Z,40.84
2023-05-14T21:54:24.090Z,40.86
2023-05-14T21:56:50.946Z,40.72
2023-05-14T21:59:17.629Z,40.81
2023-05-14T22:04:13.890Z,40.90
2023-05-14T22:06:40.895Z,40.97
2023-05-14T22:09:10.633Z,40.99
2023-05-14T22:11:37.392Z,40.86
2023-05-14T22:14:03.971Z,41.15
2023-05-14T22:16:30.723Z,41.05
2023-05-14T22:18:57.421Z,40.93
2023-05-14T22:21:24.073Z,41.10
2023-05-14T22:23:50.728Z,41.41
2023-05-14T22:26:17.355Z,41.22
2023-05-14T22:28:43.903Z,41.20
2023-05-14T22:31:10.710Z,41.16
2023-05-14T22:33:37.387Z,41.02
2023-05-14T22:36:06.894Z,41.07
2023-05-14T22:38:34.074Z,41.12
2023-05-14T22:41:00.642Z,41.10
2023-05-14T22:43:27.225Z,41.08
2023-05-14T22:45:53.803Z,41.30
2023-05-14T22:48:20.293Z,41.08
2023-05-14T22:50:46.774Z,41.19
2023-05-14T22:53:13.514Z,41.28
2023-05-14T22:55:40.107Z,41.10
2023-05-14T22:58:07.055Z,41.07
2023-05-14T23:00:33.608Z,41.22
2023-05-14T23:03:00.332Z,41.27
2023-05-14T23:05:27.235Z,41.23
2023-05-14T23:07:55.320Z,41.22
2023-05-14T23:10:21.961Z,41.26
2023-05-14T23:12:48.479Z,41.27
2023-05-14T23:15:15.240Z,41.27
2023-05-14T23:17:42.004Z,41.20
2023-05-14T23:20:12.595Z,41.27
2023-05-14T23:22:40.143Z,41.16
2023-05-14T23:25:07.700Z,41.25
2023-05-14T23:27:34.932Z,41.36
2023-05-14T23:30:03.086Z,41.41
2023-05-14T23:32:29.846Z,41.20
2023-05-14T23:34:56.368Z,41.33
2023-05-14T23:37:23.203Z,41.38
2023-05-14T23:39:50.105Z,41.25
2023-05-14T23:42:16.669Z,41.27
2023-05-14T23:44:43.363Z,41.23
2023-05-14T23:47:10.148Z,41.19
2023-05-14T23:49:36.857Z,41.36
2023-05-14T23:52:03.546Z,41.32
2023-05-14T23:54:30.179Z,41.29
2023-05-14T23:56:56.745Z,41.40
2023-05-14T23:59:23.270Z,41.32
